Time;durP1;ratioP1;P1;durP2;ratioP2;P2;SDS_P1;SDS_P2;PMS_P1;PMS_P2;Temp;Humidity;BMP_temperature;BMP_pressure;BME280_temperature;BME280_humidity;BME280_pressure;Samples;Min_cycle;Max_cycle;Signal;HPM_P1;HPM_P2
2022/05/16 00:01:05;;;;;;;;;;;14.60;99.90;;;;;;4921323;29;20054;-85
2022/05/16 00:03:34;;;;;;;;;;;14.60;99.90;;;;;;4937068;29;19937;-85
2022/05/16 00:06:01;;;;;;;;;;;14.60;99.90;;;;;;4914180;29;19928;-84
2022/05/16 00:08:31;;;;;;;;;;;14.60;99.90;;;;;;4918864;29;19931;-84
2022/05/16 00:10:59;;;;;;;;;;;14.60;99.90;;;;;;4932334;29;19934;-87
2022/05/16 00:13:30;;;;;;;;;;;14.50;99.90;;;;;;4938361;29;19931;-86
2022/05/16 00:16:00;;;;;;;;;;;14.50;99.90;;;;;;4903504;29;19931;-87
2022/05/16 00:18:30;;;;;;;;;;;14.40;99.90;;;;;;4903580;29;19951;-86
2022/05/16 00:20:58;;;;;;;;;;;14.40;99.90;;;;;;4904187;29;19947;-86
2022/05/16 00:23:28;;;;;;;;;;;14.40;99.90;;;;;;4902905;29;19927;-84
2022/05/16 00:25:56;;;;;;;;;;;14.30;99.90;;;;;;4919663;29;19927;-87
2022/05/16 00:28:24;;;;;;;;;;;14.30;99.90;;;;;;4903248;29;19938;-86
2022/05/16 00:30:52;;;;;;;;;;;14.30;99.90;;;;;;4902630;29;19938;-84
2022/05/16 00:33:22;;;;;;;;;;;14.20;99.90;;;;;;4898667;29;19947;-85
2022/05/16 00:35:51;;;;;;;;;;;14.20;99.90;;;;;;4903507;29;19927;-85
2022/05/16 00:38:21;;;;;;;;;;;14.20;99.90;;;;;;4903087;29;19938;-85
2022/05/16 00:40:48;;;;;;;;;;;14.30;99.90;;;;;;4905054;29;19931;-85
2022/05/16 00:43:24;;;;;;;;;;;14.20;99.90;;;;;;4955480;29;19926;-87
2022/05/16 00:45:58;;;;;;;;;;;14.30;99.90;;;;;;4948391;29;20052;-85
2022/05/16 00:48:28;;;;;;;;;;;14.00;99.90;;;;;;4904162;29;19930;-84
2022/05/16 00:50:58;;;;;;;;;;;14.20;99.90;;;;;;4916129;29;19927;-85
2022/05/16 00:53:29;;;;;;;;;;;14.20;99.90;;;;;;4903565;29;19933;-84
2022/05/16 00:56:00;;;;;;;;;;;14.20;99.90;;;;;;4923175;29;19938;-84
2022/05/16 00:58:30;;;;;;;;;;;14.10;99.90;;;;;;4929152;29;19937;-84
2022/05/16 01:00:58;;;;;;;;;;;13.90;99.90;;;;;;4919434;29;19927;-84
2022/05/16 01:06:21;;;;;;;;;;;14.00;99.90;;;;;;4917881;29;19931;-85
2022/05/16 01:08:51;;;;;;;;;;;14.00;99.90;;;;;;4930237;29;19935;-85
2022/05/16 01:11:25;;;;;;;;;;;14.00;99.90;;;;;;4920899;29;19930;-85
2022/05/16 01:14:04;;;;;;;;;;;14.00;99.90;;;;;;4950970;29;19927;-87
2022/05/16 01:16:31;;;;;;;;;;;13.80;99.90;;;;;;4949925;29;19927;-83
2022/05/16 01:19:06;;;;;;;;;;;13.80;99.90;;;;;;4911886;29;19927;-85
2022/05/16 01:21:50;;;;;;;;;;;13.80;99.90;;;;;;4936790;29;19950;-85
2022/05/16 01:24:20;;;;;;;;;;;13.80;99.90;;;;;;4916590;29;19934;-85
2022/05/16 01:26:50;;;;;;;;;;;13.70;99.90;;;;;;4924883;29;19930;-85
2022/05/16 01:29:22;;;;;;;;;;;13.30;99.90;;;;;;4911638;29;19922;-85
2022/05/16 01:31:56;;;;;;;;;;;13.70;99.90;;;;;;4919947;29;19931;-84
2022/05/16 01:34:26;;;;;;;;;;;13.60;99.90;;;;;;4915751;29;19930;-85
2022/05/16 01:36:56;;;;;;;;;;;13.60;99.90;;;;;;4908517;29;20410;-85
2022/05/16 01:39:27;;;;;;;;;;;13.80;99.90;;;;;;4906124;29;19923;-84
2022/05/16 01:41:58;;;;;;;;;;;13.50;99.90;;;;;;4947766;29;19934;-84
2022/05/16 01:44:31;;;;;;;;;;;13.50;99.90;;;;;;4964357;29;19954;-86
2022/05/16 01:47:12;;;;;;;;;;;13.50;99.90;;;;;;4907637;29;19934;-84
2022/05/16 01:49:40;;;;;;;;;;;13.40;99.90;;;;;;4936585;29;19937;-85
2022/05/16 01:52:10;;;;;;;;;;;13.40;99.90;;;;;;4903392;29;19933;-84
2022/05/16 01:54:41;;;;;;;;;;;13.40;99.90;;;;;;4935009;29;19927;-86
2022/05/16 01:57:11;;;;;;;;;;;12.30;99.90;;;;;;4909299;29;19938;-85
2022/05/16 01:59:40;;;;;;;;;;;13.30;99.90;;;;;;4944023;29;19942;-84
2022/05/16 02:02:15;;;;;;;;;;;13.30;99.90;;;;;;4915918;29;19937;-85
2022/05/16 02:04:47;;;;;;;;;;;13.30;99.90;;;;;;4931041;29;19923;-85
2022/05/16 02:07:23;;;;;;;;;;;13.20;99.90;;;;;;4929139;29;19927;-87
2022/05/16 02:09:54;;;;;;;;;;;13.20;99.90;;;;;;4925710;29;19947;-83
2022/05/16 02:12:24;;;;;;;;;;;13.10;99.90;;;;;;4951073;29;19927;-88
2022/05/16 02:14:54;;;;;;;;;;;13.10;99.90;;;;;;4932128;29;19931;-86
2022/05/16 02:17:22;;;;;;;;;;;13.10;99.90;;;;;;4928656;29;19930;-87
2022/05/16 02:19:51;;;;;;;;;;;13.80;99.90;;;;;;4908056;29;19926;-88
2022/05/16 02:25:08;;;;;;;;;;;13.00;99.90;;;;;;4908214;29;19938;-89
2022/05/16 02:27:36;;;;;;;;;;;13.00;99.90;;;;;;4925550;29;19927;-87
2022/05/16 02:30:17;;;;;;;;;;;13.00;99.90;;;;;;4924607;29;19927;-88
2022/05/16 02:32:45;;;;;;;;;;;13.00;99.90;;;;;;4909309;29;19927;-85
2022/05/16 02:35:16;;;;;;;;;;;13.00;99.90;;;;;;4927512;29;19930;-86
2022/05/16 02:37:44;;;;;;;;;;;13.00;99.90;;;;;;4897232;29;20334;-87
2022/05/16 02:40:13;;;;;;;;;;;12.90;99.90;;;;;;4928726;29;20018;-87
2022/05/16 02:42:52;;;;;;;;;;;12.90;99.90;;;;;;4936527;29;19930;-86
2022/05/16 02:45:23;;;;;;;;;;;12.90;99.90;;;;;;4930122;29;20331;-84
2022/05/16 02:47:55;;;;;;;;;;;12.90;99.90;;;;;;4916397;29;19927;-86
2022/05/16 02:50:47;;;;;;;;;;;12.80;99.90;;;;;;4932104;29;19933;-87
2022/05/16 02:53:19;;;;;;;;;;;12.80;99.90;;;;;;4932022;29;19927;-86
2022/05/16 02:55:50;;;;;;;;;;;13.40;99.90;;;;;;4928320;29;19941;-88
2022/05/16 02:58:20;;;;;;;;;;;12.80;99.90;;;;;;4914416;29;19934;-84
2022/05/16 03:00:50;;;;;;;;;;;13.00;99.90;;;;;;4909741;29;19927;-85
2022/05/16 03:03:26;;;;;;;;;;;12.80;99.90;;;;;;4927333;29;19943;-86
2022/05/16 03:05:54;;;;;;;;;;;12.90;99.90;;;;;;4926480;29;19928;-86
2022/05/16 03:08:48;;;;;;;;;;;12.90;99.90;;;;;;4928065;29;19927;-86
2022/05/16 03:11:18;;;;;;;;;;;12.90;99.90;;;;;;4934891;29;20046;-87
2022/05/16 03:13:51;;;;;;;;;;;13.00;99.90;;;;;;4924945;29;19942;-89
2022/05/16 03:16:21;;;;;;;;;;;12.90;99.90;;;;;;4928917;29;19931;-85
2022/05/16 03:18:49;;;;;;;;;;;13.00;99.90;;;;;;4903895;29;20275;-84
2022/05/16 03:21:20;;;;;;;;;;;13.00;99.90;;;;;;4882346;29;19927;-83
2022/05/16 03:23:52;;;;;;;;;;;13.00;99.90;;;;;;4881810;29;20394;-84
2022/05/16 03:26:25;;;;;;;;;;;13.00;99.90;;;;;;4880777;29;19931;-85
2022/05/16 03:28:56;;;;;;;;;;;12.80;99.90;;;;;;4914635;29;20290;-84
2022/05/16 03:31:27;;;;;;;;;;;13.00;99.90;;;;;;4885124;29;19934;-85
2022/05/16 03:33:55;;;;;;;;;;;13.10;99.90;;;;;;4921898;29;19998;-86
2022/05/16 03:36:24;;;;;;;;;;;13.00;99.90;;;;;;4935903;29;19930;-83
2022/05/16 03:41:48;;;;;;;;;;;13.10;99.90;;;;;;4925349;29;19934;-83
2022/05/16 03:44:17;;;;;;;;;;;13.00;99.90;;;;;;4943261;29;19950;-83
2022/05/16 03:46:49;;;;;;;;;;;11.60;99.90;;;;;;4936539;29;19927;-86
2022/05/16 03:49:18;;;;;;;;;;;13.00;99.90;;;;;;4914792;29;20387;-84
2022/05/16 03:51:46;;;;;;;;;;;13.00;99.90;;;;;;4923955;29;20330;-86
2022/05/16 03:54:17;;;;;;;;;;;13.00;99.90;;;;;;4940361;29;19949;-86
2022/05/16 03:56:44;;;;;;;;;;;13.00;99.90;;;;;;4905530;29;19937;-85
2022/05/16 03:59:12;;;;;;;;;;;12.70;99.90;;;;;;4902858;29;19934;-84
2022/05/16 04:01:40;;;;;;;;;;;12.90;99.90;;;;;;4904828;29;19926;-86
2022/05/16 04:04:12;;;;;;;;;;;12.90;99.90;;;;;;4905884;29;19927;-86
2022/05/16 04:06:40;;;;;;;;;;;12.90;99.90;;;;;;4939836;29;20302;-85
2022/05/16 04:09:09;;;;;;;;;;;12.90;99.90;;;;;;4924349;29;20004;-88
2022/05/16 04:11:37;;;;;;;;;;;12.80;99.90;;;;;;4921785;29;20318;-85
2022/05/16 04:14:04;;;;;;;;;;;12.80;99.90;;;;;;4907374;29;19930;-86
2022/05/16 04:16:33;;;;;;;;;;;12.80;99.90;;;;;;4914252;29;19931;-84
2022/05/16 04:19:01;;;;;;;;;;;12.80;99.90;;;;;;4943723;29;19926;-85
2022/05/16 04:21:28;;;;;;;;;;;12.90;99.90;;;;;;4952282;29;19927;-83
2022/05/16 04:23:56;;;;;;;;;;;12.90;99.90;;;;;;4932301;29;19937;-84
2022/05/16 04:26:24;;;;;;;;;;;13.00;99.90;;;;;;4936864;29;19931;-84
2022/05/16 04:28:54;;;;;;;;;;;12.80;99.90;;;;;;4934169;29;19937;-85
2022/05/16 04:31:23;;;;;;;;;;;11.80;99.90;;;;;;4933584;29;19931;-83
2022/05/16 04:33:53;;;;;;;;;;;12.80;99.90;;;;;;4934216;29;19927;-82
2022/05/16 04:36:21;;;;;;;;;;;12.80;99.90;;;;;;4916597;29;19928;-83
2022/05/16 04:38:49;;;;;;;;;;;12.90;99.90;;;;;;4927671;29;19933;-83
2022/05/16 04:44:10;;;;;;;;;;;12.80;99.90;;;;;;4943940;29;19937;-84
2022/05/16 04:46:37;;;;;;;;;;;12.90;99.90;;;;;;4948212;29;20395;-83
2022/05/16 04:49:05;;;;;;;;;;;12.80;99.90;;;;;;4944924;29;19931;-82
2022/05/16 04:51:33;;;;;;;;;;;12.80;99.90;;;;;;4942757;29;19927;-84
2022/05/16 04:54:02;;;;;;;;;;;12.90;99.90;;;;;;4927434;29;19933;-83
2022/05/16 04:56:33;;;;;;;;;;;12.90;99.90;;;;;;4940786;29;19938;-83
2022/05/16 04:59:10;;;;;;;;;;;13.00;99.90;;;;;;4924044;29;19942;-83
2022/05/16 05:01:38;;;;;;;;;;;13.00;99.90;;;;;;4923701;29;19930;-83
2022/05/16 05:04:07;;;;;;;;;;;12.80;99.90;;;;;;4928582;29;19951;-82
2022/05/16 05:06:42;;;;;;;;;;;13.10;99.90;;;;;;4917015;29;19931;-84
2022/05/16 05:09:13;;;;;;;;;;;13.10;99.90;;;;;;4938428;29;19937;-85
2022/05/16 05:14:44;;;;;;;;;;;13.20;99.90;;;;;;4948796;29;19927;-84
2022/05/16 05:17:17;;;;;;;;;;;13.30;99.90;;;;;;4946363;29;19923;-84
2022/05/16 05:19:45;;;;;;;;;;;13.30;99.90;;;;;;4930710;29;19938;-84
2022/05/16 05:22:22;;;;;;;;;;;14.00;99.90;;;;;;4943748;29;19927;-85
2022/05/16 05:24:51;;;;;;;;;;;13.50;99.90;;;;;;4923222;29;19927;-84
2022/05/16 05:27:30;;;;;;;;;;;13.50;99.90;;;;;;4909274;29;19933;-85
2022/05/16 05:30:02;;;;;;;;;;;13.50;99.90;;;;;;4928224;29;20314;-84
2022/05/16 05:32:33;;;;;;;;;;;13.60;99.90;;;;;;4924129;29;19931;-86
2022/05/16 05:35:04;;;;;;;;;;;13.70;99.90;;;;;;4933499;29;19914;-84
2022/05/16 05:37:36;;;;;;;;;;;13.70;99.90;;;;;;4942570;28;19927;-85
2022/05/16 05:40:19;;;;;;;;;;;13.80;99.90;;;;;;4889379;29;19927;-84
2022/05/16 05:42:50;;;;;;;;;;;13.90;99.90;;;;;;4916729;29;19927;-84
2022/05/16 05:45:18;;;;;;;;;;;14.00;99.90;;;;;;4926020;29;19931;-85
2022/05/16 05:47:51;;;;;;;;;;;14.00;99.90;;;;;;4900471;29;19931;-85
2022/05/16 05:50:21;;;;;;;;;;;14.20;99.90;;;;;;4896064;29;19938;-83
2022/05/16 05:52:58;;;;;;;;;;;14.20;99.90;;;;;;4899419;29;19931;-84
2022/05/16 05:55:27;;;;;;;;;;;14.30;99.90;;;;;;4913401;29;19927;-85
2022/05/16 05:57:55;;;;;;;;;;;14.40;99.90;;;;;;4880073;29;19935;-85
2022/05/16 06:00:25;;;;;;;;;;;14.50;99.90;;;;;;4882170;29;19938;-86
2022/05/16 06:02:56;;;;;;;;;;;14.70;99.90;;;;;;4903174;29;19931;-85
2022/05/16 06:05:26;;;;;;;;;;;14.80;99.90;;;;;;4908158;29;19942;-85
2022/05/16 06:07:56;;;;;;;;;;;14.90;99.90;;;;;;4910532;29;19927;-84
2022/05/16 06:10:37;;;;;;;;;;;14.30;99.90;;;;;;4906899;29;19924;-84
2022/05/16 06:13:08;;;;;;;;;;;15.00;99.90;;;;;;4892225;29;19933;-84
2022/05/16 06:15:38;;;;;;;;;;;15.10;99.90;;;;;;4908521;29;19934;-83
2022/05/16 06:18:15;;;;;;;;;;;15.20;99.90;;;;;;4894295;29;19935;-88
2022/05/16 06:20:44;;;;;;;;;;;15.20;99.90;;;;;;4888088;29;19935;-91
2022/05/16 06:23:11;;;;;;;;;;;15.30;99.90;;;;;;4884168;29;19967;-88
2022/05/16 06:25:42;;;;;;;;;;;15.40;99.90;;;;;;4883495;29;19931;-87
2022/05/16 06:28:12;;;;;;;;;;;15.30;99.90;;;;;;4898997;29;19931;-87
2022/05/16 06:30:40;;;;;;;;;;;15.40;99.90;;;;;;4890678;29;19939;-85
2022/05/16 06:33:10;;;;;;;;;;;15.40;99.90;;;;;;4888074;29;20355;-87
2022/05/16 06:35:38;;;;;;;;;;;15.40;99.90;;;;;;4886536;29;19931;-87
2022/05/16 06:38:12;;;;;;;;;;;15.50;99.90;;;;;;4888012;29;19946;-86
2022/05/16 06:40:42;;;;;;;;;;;15.50;99.90;;;;;;4908014;29;19931;-90
2022/05/16 06:43:09;;;;;;;;;;;15.50;99.90;;;;;;4897838;29;19927;-88
2022/05/16 06:45:38;;;;;;;;;;;15.50;99.90;;;;;;4922574;29;19927;-88
2022/05/16 06:48:07;;;;;;;;;;;15.50;99.90;;;;;;4901377;29;19931;-88
2022/05/16 06:50:35;;;;;;;;;;;15.50;99.90;;;;;;4894758;29;19946;-87
2022/05/16 06:53:03;;;;;;;;;;;15.50;99.90;;;;;;4871080;29;19935;-89
2022/05/16 06:55:34;;;;;;;;;;;16.70;99.90;;;;;;4890860;29;20391;-87
2022/05/16 06:58:02;;;;;;;;;;;15.50;99.90;;;;;;4897684;29;20383;-88
2022/05/16 07:00:29;;;;;;;;;;;15.50;99.90;;;;;;4891635;29;19931;-87
2022/05/16 07:02:57;;;;;;;;;;;15.50;99.90;;;;;;4894434;29;20302;-86
2022/05/16 07:05:46;;;;;;;;;;;15.60;99.90;;;;;;4910660;29;20094;-86
2022/05/16 07:08:14;;;;;;;;;;;15.50;99.90;;;;;;4914808;29;19927;-87
2022/05/16 07:11:14;;;;;;;;;;;15.50;99.90;;;;;;4901402;29;19926;-88
2022/05/16 07:13:41;;;;;;;;;;;15.50;99.90;;;;;;4893888;29;20640;-88
2022/05/16 07:16:13;;;;;;;;;;;15.30;99.90;;;;;;4898775;29;19927;-86
2022/05/16 07:18:43;;;;;;;;;;;15.60;99.90;;;;;;4933758;29;19934;-87
2022/05/16 07:21:11;;;;;;;;;;;15.50;99.90;;;;;;4901544;29;19927;-87
2022/05/16 07:23:40;;;;;;;;;;;15.70;99.90;;;;;;4936055;29;19930;-88
2022/05/16 07:28:53;;;;;;;;;;;16.20;99.90;;;;;;4898605;29;19934;-88
2022/05/16 07:31:21;;;;;;;;;;;16.10;99.90;;;;;;4898571;29;19931;-87
2022/05/16 07:33:48;;;;;;;;;;;16.20;99.90;;;;;;4913971;29;20417;-85
2022/05/16 07:36:16;;;;;;;;;;;17.20;99.90;;;;;;4900623;29;19927;-88
2022/05/16 07:38:52;;;;;;;;;;;16.40;99.90;;;;;;4903988;29;19934;-88
2022/05/16 07:41:20;;;;;;;;;;;18.30;99.90;;;;;;4901567;29;19934;-87
2022/05/16 07:43:47;;;;;;;;;;;16.60;99.90;;;;;;4901900;29;19934;-85
2022/05/16 07:46:15;;;;;;;;;;;16.00;99.90;;;;;;4913999;29;19950;-86
2022/05/16 07:48:43;;;;;;;;;;;16.80;99.90;;;;;;4882609;29;19931;-88
2022/05/16 07:51:10;;;;;;;;;;;17.20;99.90;;;;;;4880648;29;19931;-87
2022/05/16 07:53:38;;;;;;;;;;;17.10;99.90;;;;;;4875841;29;19950;-90
2022/05/16 07:56:09;;;;;;;;;;;17.20;99.90;;;;;;4876864;29;19935;-85
2022/05/16 07:58:40;;;;;;;;;;;17.20;99.90;;;;;;4903753;29;19931;-85
2022/05/16 08:01:09;;;;;;;;;;;18.30;99.90;;;;;;4880160;29;19928;-86
2022/05/16 08:03:36;;;;;;;;;;;17.40;99.90;;;;;;4888329;29;20251;-88
2022/05/16 08:06:27;;;;;;;;;;;17.40;99.90;;;;;;4890478;29;19927;-88
2022/05/16 08:12:10;;;;;;;;;;;17.30;99.90;;;;;;4901181;29;19950;-86
2022/05/16 08:14:43;;;;;;;;;;;17.30;99.90;;;;;;4866995;29;19927;-87
2022/05/16 08:17:12;;;;;;;;;;;17.30;99.90;;;;;;4893318;29;19931;-86
2022/05/16 08:19:41;;;;;;;;;;;17.30;99.90;;;;;;4904894;29;19935;-86
2022/05/16 08:22:34;;;;;;;;;;;17.30;99.90;;;;;;4881701;29;19935;-87
2022/05/16 08:25:38;;;;;;;;;;;17.30;99.90;;;;;;4900218;29;19935;-86
2022/05/16 08:28:23;;;;;;;;;;;17.40;99.90;;;;;;4839573;29;19928;-88
2022/05/16 08:30:51;;;;;;;;;;;17.50;99.90;;;;;;4877601;29;19931;-88
2022/05/16 08:33:18;;;;;;;;;;;17.60;99.90;;;;;;4900866;29;19934;-87
2022/05/16 08:41:39;;;;;;;;;;;17.80;99.90;;;;;;4909742;29;19938;-85
2022/05/16 08:44:11;;;;;;;;;;;18.00;99.90;;;;;;4881842;29;19927;-86
2022/05/16 08:46:46;;;;;;;;;;;18.20;99.90;;;;;;4921342;29;20286;-90
2022/05/16 08:49:26;;;;;;;;;;;18.30;99.90;;;;;;4911620;29;19927;-88
2022/05/16 08:51:57;;;;;;;;;;;18.30;99.90;;;;;;4898541;29;20296;-85
2022/05/16 08:54:32;;;;;;;;;;;18.40;99.90;;;;;;4912950;29;19942;-85
2022/05/16 08:57:01;;;;;;;;;;;18.50;99.90;;;;;;4914404;29;19935;-88
2022/05/16 08:59:30;;;;;;;;;;;18.60;99.90;;;;;;4899992;29;19933;-88
2022/05/16 09:02:20;;;;;;;;;;;18.70;99.90;;;;;;4913809;29;19926;-88
2022/05/16 09:05:06;;;;;;;;;;;18.80;99.90;;;;;;4891259;29;20379;-88
2022/05/16 09:07:45;;;;;;;;;;;18.90;99.90;;;;;;4897542;29;19931;-86
2022/05/16 09:10:16;;;;;;;;;;;18.90;99.90;;;;;;4908547;29;19927;-87
2022/05/16 09:12:47;;;;;;;;;;;19.00;99.90;;;;;;4912250;29;19934;-88
2022/05/16 09:15:17;;;;;;;;;;;19.10;99.90;;;;;;4894366;29;19927;-88
2022/05/16 09:17:45;;;;;;;;;;;19.20;99.90;;;;;;4910146;29;19935;-89
2022/05/16 09:20:19;;;;;;;;;;;19.40;99.90;;;;;;4902313;29;20312;-87
2022/05/16 09:23:00;;;;;;;;;;;19.40;99.90;;;;;;4926998;29;19930;-88
2022/05/16 09:25:32;;;;;;;;;;;19.50;99.90;;;;;;4912280;29;19935;-88
2022/05/16 09:30:47;;;;;;;;;;;19.60;99.90;;;;;;4930080;29;19941;-87
2022/05/16 09:33:20;;;;;;;;;;;19.60;99.90;;;;;;4912130;29;19931;-88
2022/05/16 09:36:05;;;;;;;;;;;19.60;99.90;;;;;;4898472;29;19927;-88
2022/05/16 09:38:33;;;;;;;;;;;19.50;99.90;;;;;;4911950;29;20287;-87
2022/05/16 09:41:03;;;;;;;;;;;19.50;99.90;;;;;;4896422;29;19935;-88
2022/05/16 09:43:33;;;;;;;;;;;19.40;99.90;;;;;;4894538;29;20326;-86
2022/05/16 09:46:03;;;;;;;;;;;19.30;99.90;;;;;;4910738;29;19941;-85
2022/05/16 09:48:30;;;;;;;;;;;19.40;99.90;;;;;;4910969;29;19938;-87
2022/05/16 09:51:03;;;;;;;;;;;19.40;99.90;;;;;;4911171;29;19943;-88
2022/05/16 09:53:36;;;;;;;;;;;19.50;99.90;;;;;;4910737;29;20298;-87
2022/05/16 09:56:05;;;;;;;;;;;19.60;99.90;;;;;;4904292;29;19934;-87
2022/05/16 09:58:45;;;;;;;;;;;19.60;99.90;;;;;;4912295;29;19938;-87
2022/05/16 10:01:26;;;;;;;;;;;19.60;99.90;;;;;;4907190;29;19927;-86
2022/05/16 10:03:54;;;;;;;;;;;19.70;99.90;;;;;;4925045;29;19938;-86
2022/05/16 10:06:28;;;;;;;;;;;19.70;99.90;;;;;;4911336;29;20406;-87
2022/05/16 10:08:55;;;;;;;;;;;19.80;99.90;;;;;;4909449;29;19935;-86
2022/05/16 10:11:28;;;;;;;;;;;19.90;99.90;;;;;;4909310;29;19945;-87
2022/05/16 10:13:55;;;;;;;;;;;19.90;99.90;;;;;;4907442;29;19926;-86
2022/05/16 10:16:26;;;;;;;;;;;20.00;99.90;;;;;;4928437;29;19935;-87
2022/05/16 10:18:57;;;;;;;;;;;20.00;99.90;;;;;;4909694;29;19935;-88
2022/05/16 10:21:29;;;;;;;;;;;20.10;99.90;;;;;;4928267;29;19946;-86
2022/05/16 10:23:58;;;;;;;;;;;20.10;99.90;;;;;;4911517;29;20359;-87
2022/05/16 10:26:30;;;;;;;;;;;20.10;99.90;;;;;;4902740;29;20326;-86
2022/05/16 10:29:00;;;;;;;;;;;20.10;99.90;;;;;;4893275;29;19930;-87
2022/05/16 10:34:31;;;;;;;;;;;20.10;99.90;;;;;;4915266;29;19937;-87
2022/05/16 10:37:01;;;;;;;;;;;20.00;99.90;;;;;;4922460;29;19927;-87
2022/05/16 10:39:29;;;;;;;;;;;20.00;99.90;;;;;;4915802;29;19927;-87
2022/05/16 10:42:04;;;;;;;;;;;20.00;99.90;;;;;;4912230;29;19934;-87
2022/05/16 10:44:34;;;;;;;;;;;19.90;99.90;;;;;;4929135;29;19927;-88
2022/05/16 10:47:17;;;;;;;;;;;20.00;99.90;;;;;;4924519;29;19927;-89
2022/05/16 10:49:53;;;;;;;;;;;20.00;99.90;;;;;;4896821;29;19922;-88
2022/05/16 10:52:40;;;;;;;;;;;20.10;99.90;;;;;;4897133;29;20177;-87
2022/05/16 10:55:08;;;;;;;;;;;20.10;99.90;;;;;;4881825;29;20382;-88
2022/05/16 10:57:35;;;;;;;;;;;20.00;99.90;;;;;;4910793;29;19931;-88
2022/05/16 11:00:09;;;;;;;;;;;19.90;99.90;;;;;;4930052;29;20314;-88
2022/05/16 11:02:41;;;;;;;;;;;19.80;99.90;;;;;;4913337;29;19935;-85
2022/05/16 11:05:28;;;;;;;;;;;19.70;99.90;;;;;;4915421;29;19926;-88
2022/05/16 11:08:29;;;;;;;;;;;19.70;99.90;;;;;;4933338;29;19934;-87
2022/05/16 11:11:12;;;;;;;;;;;19.70;99.90;;;;;;4874096;29;19931;-86
2022/05/16 11:13:58;;;;;;;;;;;19.70;99.90;;;;;;4941734;29;19915;-87
2022/05/16 11:16:31;;;;;;;;;;;19.70;99.90;;;;;;4895486;29;19951;-86
2022/05/16 11:19:12;;;;;;;;;;;19.80;99.90;;;;;;4923263;29;19930;-88
2022/05/16 11:22:16;;;;;;;;;;;20.00;99.90;;;;;;4910755;29;19931;-89
2022/05/16 11:24:52;;;;;;;;;;;20.20;99.90;;;;;;4883504;29;19987;-87
2022/05/16 11:27:31;;;;;;;;;;;20.30;99.90;;;;;;4894445;29;19927;-84
2022/05/16 11:30:17;;;;;;;;;;;20.50;99.90;;;;;;4926502;29;20414;-87
2022/05/16 11:32:46;;;;;;;;;;;20.80;99.90;;;;;;4938172;29;19953;-85
2022/05/16 11:35:22;;;;;;;;;;;21.00;99.90;;;;;;4908598;29;19942;-86
2022/05/16 11:38:03;;;;;;;;;;;21.10;99.90;;;;;;4922364;29;19934;-85
2022/05/16 11:40:57;;;;;;;;;;;21.20;99.70;;;;;;4941774;29;19951;-85
2022/05/16 11:43:32;;;;;;;;;;;21.40;99.60;;;;;;4925975;29;19937;-86
2022/05/16 11:45:59;;;;;;;;;;;21.50;99.10;;;;;;4904183;29;19934;-86
2022/05/16 11:48:33;;;;;;;;;;;21.50;99.10;;;;;;4923795;29;19942;-86
2022/05/16 11:51:27;;;;;;;;;;;21.60;99.30;;;;;;4928277;29;19926;-87
2022/05/16 11:54:00;;;;;;;;;;;21.50;98.80;;;;;;4926797;29;19931;-86
2022/05/16 12:02:30;;;;;;;;;;;22.00;98.30;;;;;;4874305;29;19935;-87
2022/05/16 12:05:10;;;;;;;;;;;22.10;97.20;;;;;;4903906;29;19950;-87
2022/05/16 12:07:39;;;;;;;;;;;22.20;96.80;;;;;;4893919;29;19938;-87
2022/05/16 12:10:10;;;;;;;;;;;22.20;97.30;;;;;;4914774;29;20584;-87
2022/05/16 12:12:40;;;;;;;;;;;22.10;97.10;;;;;;4907174;29;19926;-87
2022/05/16 12:15:11;;;;;;;;;;;22.10;97.00;;;;;;4923354;29;19927;-86
2022/05/16 12:17:55;;;;;;;;;;;22.20;97.00;;;;;;4922223;29;19942;-88
2022/05/16 12:20:33;;;;;;;;;;;22.20;96.80;;;;;;4910931;29;19927;-86
2022/05/16 12:23:07;;;;;;;;;;;22.20;96.90;;;;;;4909399;29;19938;-87
2022/05/16 12:25:40;;;;;;;;;;;22.20;96.60;;;;;;4941724;29;19935;-87
2022/05/16 12:28:08;;;;;;;;;;;22.20;95.70;;;;;;4941127;29;19941;-86
2022/05/16 12:30:54;;;;;;;;;;;22.10;95.90;;;;;;4927384;29;20503;-84
2022/05/16 12:33:32;;;;;;;;;;;22.20;95.60;;;;;;4924415;29;19931;-87
2022/05/16 12:36:01;;;;;;;;;;;22.30;95.80;;;;;;4911815;29;19930;-85
2022/05/16 12:38:40;;;;;;;;;;;22.30;95.80;;;;;;4922242;29;19938;-85
2022/05/16 12:41:38;;;;;;;;;;;22.30;95.50;;;;;;4953285;28;19922;-87
2022/05/16 12:44:04;;;;;;;;;;;22.30;95.60;;;;;;4919634;29;19915;-87
2022/05/16 12:46:53;;;;;;;;;;;22.50;95.80;;;;;;4917368;29;19942;-88
2022/05/16 12:49:37;;;;;;;;;;;22.70;95.60;;;;;;4924247;29;19930;-86
2022/05/16 12:52:34;;;;;;;;;;;23.10;95.30;;;;;;4906659;29;19927;-86
2022/05/16 12:55:21;;;;;;;;;;;23.30;94.70;;;;;;4843085;29;20407;-87
2022/05/16 12:57:55;;;;;;;;;;;23.40;94.80;;;;;;4913331;29;19934;-86
2022/05/16 13:00:25;;;;;;;;;;;23.20;93.50;;;;;;4913999;29;19926;-86
2022/05/16 13:03:13;;;;;;;;;;;23.10;93.10;;;;;;4922711;29;19926;-86
2022/05/16 13:05:45;;;;;;;;;;;22.80;93.60;;;;;;4919798;29;20306;-86
2022/05/16 13:08:36;;;;;;;;;;;22.70;93.90;;;;;;4895666;29;19927;-86
2022/05/16 13:11:17;;;;;;;;;;;22.50;94.20;;;;;;4908760;29;19950;-87
2022/05/16 13:13:57;;;;;;;;;;;22.60;94.40;;;;;;4893801;29;19926;-87
2022/05/16 13:16:30;;;;;;;;;;;22.50;94.50;;;;;;4896101;29;20734;-86
2022/05/16 13:19:00;;;;;;;;;;;22.90;94.60;;;;;;4890858;29;20387;-85
2022/05/16 13:21:34;;;;;;;;;;;23.00;94.50;;;;;;4927190;29;19934;-86
2022/05/16 13:24:05;;;;;;;;;;;23.30;94.30;;;;;;4884509;29;19931;-84
2022/05/16 13:29:22;;;;;;;;;;;23.80;93.80;;;;;;4922281;29;20306;-87
2022/05/16 13:31:52;;;;;;;;;;;24.10;93.10;;;;;;4911078;29;19927;-87
2022/05/16 13:34:34;;;;;;;;;;;24.30;92.50;;;;;;4904840;29;19935;-91
2022/05/16 13:37:06;;;;;;;;;;;24.20;92.50;;;;;;4885771;29;19934;-91
2022/05/16 13:39:54;;;;;;;;;;;24.10;92.70;;;;;;4888509;29;20397;-92
2022/05/16 13:42:23;;;;;;;;;;;23.90;92.90;;;;;;4902986;29;20334;-91
2022/05/16 13:44:57;;;;;;;;;;;23.60;93.10;;;;;;4904267;29;19931;-90
2022/05/16 13:47:30;;;;;;;;;;;23.40;93.20;;;;;;4901210;29;20287;-91
2022/05/16 13:50:01;;;;;;;;;;;23.30;93.30;;;;;;4906163;29;19931;-94
2022/05/16 13:52:31;;;;;;;;;;;22.30;93.20;;;;;;4890033;29;19938;-93
2022/05/16 13:55:03;;;;;;;;;;;23.10;93.40;;;;;;4890500;29;19927;-92
2022/05/16 13:57:45;;;;;;;;;;;23.00;93.20;;;;;;4910398;29;19927;-92
2022/05/16 14:00:25;;;;;;;;;;;23.00;93.20;;;;;;4899772;29;19928;-93
2022/05/16 14:03:29;;;;;;;;;;;23.20;93.60;;;;;;4901749;29;19926;-94
2022/05/16 14:06:06;;;;;;;;;;;23.40;93.00;;;;;;4904076;29;19938;-89
2022/05/16 14:09:22;;;;;;;;;;;23.60;92.80;;;;;;4939871;29;19927;-93
2022/05/16 14:11:51;;;;;;;;;;;23.80;93.00;;;;;;4930307;29;19928;-90
2022/05/16 14:14:26;;;;;;;;;;;24.00;92.50;;;;;;4906356;29;19937;-89
2022/05/16 14:17:02;;;;;;;;;;;23.90;92.50;;;;;;4939197;29;20315;-91
2022/05/16 14:19:31;;;;;;;;;;;23.60;92.60;;;;;;4911462;29;19927;-90
2022/05/16 14:22:22;;;;;;;;;;;23.10;93.00;;;;;;4916913;29;20364;-92
2022/05/16 14:24:51;;;;;;;;;;;23.00;93.50;;;;;;4924809;29;19926;-91
2022/05/16 14:27:24;;;;;;;;;;;22.80;94.00;;;;;;4914320;29;19935;-93
2022/05/16 14:29:56;;;;;;;;;;;22.80;94.50;;;;;;4897615;29;19926;-93
2022/05/16 14:32:25;;;;;;;;;;;23.20;94.20;;;;;;4906538;29;19927;-91
2022/05/16 14:35:02;;;;;;;;;;;23.70;93.60;;;;;;4897169;29;20358;-92
2022/05/16 14:37:31;;;;;;;;;;;24.10;93.00;;;;;;4903495;29;20001;-91
2022/05/16 14:40:02;;;;;;;;;;;24.30;92.60;;;;;;4887475;29;19956;-91
2022/05/16 14:42:41;;;;;;;;;;;24.00;92.80;;;;;;4897293;29;19931;-91
2022/05/16 14:45:09;;;;;;;;;;;23.70;93.30;;;;;;4879954;29;19938;-91
2022/05/16 14:47:41;;;;;;;;;;;23.30;93.30;;;;;;4874486;29;19935;-90
2022/05/16 14:50:10;;;;;;;;;;;22.80;94.00;;;;;;4910663;29;19935;-89
2022/05/16 14:52:51;;;;;;;;;;;22.50;94.60;;;;;;4894972;29;19916;-91
2022/05/16 14:55:25;;;;;;;;;;;22.40;94.80;;;;;;4887813;29;21866;-93
2022/05/16 14:57:55;;;;;;;;;;;22.60;94.80;;;;;;4891654;29;19927;-92
2022/05/16 15:04:04;;;;;;;;;;;23.60;93.90;;;;;;4933871;29;19929;-93
2022/05/16 15:06:49;;;;;;;;;;;23.50;93.90;;;;;;4882918;29;19922;-92
2022/05/16 15:09:20;;;;;;;;;;;23.50;94.10;;;;;;4896173;29;19927;-91
2022/05/16 15:11:52;;;;;;;;;;;23.50;94.20;;;;;;4884544;29;19941;-91
2022/05/16 15:14:21;;;;;;;;;;;23.30;94.30;;;;;;4889232;29;19938;-94
2022/05/16 15:16:51;;;;;;;;;;;23.00;94.70;;;;;;4869020;29;19931;-91
2022/05/16 15:19:19;;;;;;;;;;;23.00;94.90;;;;;;4885155;29;19927;-91
2022/05/16 15:21:48;;;;;;;;;;;23.40;94.80;;;;;;4881901;29;19931;-92
2022/05/16 15:24:21;;;;;;;;;;;23.90;94.20;;;;;;4867899;29;19927;-92
2022/05/16 15:27:09;;;;;;;;;;;24.40;93.30;;;;;;4903247;29;19935;-93
2022/05/16 15:29:39;;;;;;;;;;;24.80;92.30;;;;;;4889589;29;19935;-90
2022/05/16 15:32:35;;;;;;;;;;;25.10;92.00;;;;;;4904868;29;19935;-90
2022/05/16 15:35:12;;;;;;;;;;;26.20;92.30;;;;;;4915577;29;19931;-90